createdAt,value
2019-02-27T00:01:36.052Z,62.13
2019-02-27T00:04:07.154Z,62.95
2019-02-27T00:06:36.549Z,61.63
2019-02-27T00:09:10.137Z,66.50
2019-02-27T00:11:39.750Z,67.47
2019-02-27T00:14:10.262Z,63.60
2019-02-27T00:16:41.741Z,71.13
2019-02-27T00:19:11.147Z,60.73
2019-02-27T00:21:40.937Z,60.40
2019-02-27T00:24:13.465Z,64.37
2019-02-27T00:26:44.599Z,64.07
2019-02-27T00:29:14.037Z,66.87
2019-02-27T00:31:45.985Z,63.40
2019-02-27T00:34:16.219Z,64.97
2019-02-27T00:36:46.812Z,60.90
2019-02-27T00:39:16.472Z,61.23
2019-02-27T00:41:47.275Z,59.67
2019-02-27T00:44:16.683Z,64.50
2019-02-27T00:46:47.557Z,64.87
2019-02-27T00:49:17.043Z,61.40
2019-02-27T00:51:46.442Z,63.23
2019-02-27T00:54:16.934Z,64.43
2019-02-27T00:56:46.563Z,65.93
2019-02-27T00:59:17.756Z,60.50
2019-02-27T01:01:49.701Z,62.00
2019-02-27T01:04:20.421Z,60.30
2019-02-27T01:06:49.824Z,62.77
2019-02-27T01:09:19.289Z,62.50
2019-02-27T01:11:51.857Z,56.60
2019-02-27T01:14:21.310Z,67.70
2019-02-27T01:16:50.849Z,62.70
2019-02-27T01:19:20.534Z,65.43
2019-02-27T01:21:49.961Z,60.60
2019-02-27T01:24:19.397Z,60.07
2019-02-27T01:26:49.468Z,63.13
2019-02-27T01:29:19.175Z,58.87
2019-02-27T01:31:49.102Z,61.30
2019-02-27T01:34:19.167Z,57.53
2019-02-27T01:36:49.176Z,62.20
2019-02-27T01:39:19.200Z,56.18
2019-02-27T01:41:49.489Z,59.73
2019-02-27T01:44:19.109Z,59.00
2019-02-27T01:46:49.127Z,62.20
2019-02-27T01:49:19.459Z,60.58
2019-02-27T01:51:49.164Z,62.27
2019-02-27T01:54:21.661Z,60.45
2019-02-27T01:56:51.260Z,62.00
2019-02-27T01:59:20.656Z,59.47
2019-02-27T02:01:51.059Z,61.23
2019-02-27T02:04:20.883Z,60.93
2019-02-27T02:06:50.267Z,59.70
2019-02-27T02:09:55.087Z,61.87
2019-02-27T02:12:28.561Z,59.97
2019-02-27T02:15:13.430Z,58.93
2019-02-27T02:18:19.679Z,59.17
2019-02-27T02:21:12.771Z,57.78
2019-02-27T02:24:35.108Z,56.50
2019-02-27T02:27:39.166Z,55.57
2019-02-27T02:30:52.249Z,61.37
2019-02-27T02:34:05.209Z,56.70
2019-02-27T02:37:17.483Z,59.50
2019-02-27T02:40:32.086Z,56.97
2019-02-27T02:43:24.788Z,57.47
2019-02-27T02:46:15.627Z,57.53
2019-02-27T02:49:09.533Z,57.30
2019-02-27T02:52:11.345Z,56.90
2019-02-27T02:55:17.341Z,60.67
2019-02-27T02:58:30.409Z,59.47
2019-02-27T03:01:27.569Z,53.83
2019-02-27T03:04:33.268Z,54.85
2019-02-27T03:07:44.702Z,55.38
2019-02-27T03:10:25.911Z,59.73
2019-02-27T03:13:19.148Z,61.85
2019-02-27T03:16:12.820Z,57.10
2019-02-27T03:19:10.294Z,55.30
2019-02-27T03:22:21.321Z,59.27
2019-02-27T03:25:18.291Z,61.93
2019-02-27T03:28:13.248Z,60.53
2019-02-27T03:31:16.272Z,55.83
2019-02-27T03:34:33.701Z,54.93
2019-02-27T03:37:15.849Z,54.65
2019-02-27T03:40:35.257Z,52.87
2019-02-27T03:43:37.246Z,56.50
2019-02-27T03:46:42.402Z,53.77
2019-02-27T03:49:41.494Z,54.87
2019-02-27T03:52:47.773Z,59.17
2019-02-27T03:55:52.073Z,55.60
2019-02-27T03:59:07.505Z,56.90
2019-02-27T04:02:07.676Z,52.63
2019-02-27T04:05:17.524Z,55.13
2019-02-27T04:08:28.651Z,57.13
2019-02-27T04:10:58.538Z,52.62
2019-02-27T04:13:28.000Z,56.03
2019-02-27T04:15:58.553Z,56.77
2019-02-27T04:18:28.439Z,53.63
2019-02-27T04:20:58.283Z,54.97
2019-02-27T04:23:29.482Z,51.90
2019-02-27T04:26:05.397Z,53.87
2019-02-27T04:28:31.749Z,56.42
2019-02-27T04:31:01.151Z,57.20
2019-02-27T04:33:30.789Z,60.40
2019-02-27T04:36:02.011Z,55.37
2019-02-27T04:38:32.544Z,49.80
2019-02-27T04:41:02.158Z,53.60
2019-02-27T04:43:32.265Z,52.70
2019-02-27T04:46:02.152Z,49.27
2019-02-27T04:48:31.821Z,51.57
2019-02-27T04:51:03.018Z,51.03
2019-02-27T04:53:32.773Z,50.43
2019-02-27T04:56:02.341Z,51.47
2019-02-27T04:58:33.556Z,53.43
2019-02-27T05:01:05.532Z,52.45
2019-02-27T05:03:36.126Z,51.50
2019-02-27T05:06:05.537Z,47.93
2019-02-27T05:08:36.095Z,53.97
2019-02-27T05:11:07.279Z,49.50
2019-02-27T05:13:36.718Z,49.73
2019-02-27T05:16:07.148Z,48.03
2019-02-27T05:18:36.713Z,48.30
2019-02-27T05:21:07.248Z,50.38
2019-02-27T05:23:36.703Z,53.42
2019-02-27T05:26:06.416Z,53.07
2019-02-27T05:28:36.980Z,52.37
2019-02-27T05:31:06.452Z,53.70
2019-02-27T05:33:39.561Z,49.63
2019-02-27T05:36:07.170Z,51.40
2019-02-27T05:38:36.573Z,46.77
2019-02-27T05:41:07.272Z,47.07
2019-02-27T05:43:37.899Z,53.17
2019-02-27T05:46:07.307Z,50.20
2019-02-27T05:48:37.870Z,51.58
2019-02-27T05:51:08.542Z,51.13
2019-02-27T05:53:39.264Z,55.17
2019-02-27T05:56:10.143Z,49.57
2019-02-27T05:58:39.556Z,55.70
2019-02-27T06:01:08.983Z,55.23
2019-02-27T06:03:39.607Z,48.55
2019-02-27T06:06:11.494Z,54.13
2019-02-27T06:08:40.208Z,54.13
2019-02-27T06:11:09.762Z,53.67
2019-02-27T06:13:39.183Z,55.50
2019-02-27T06:16:09.316Z,51.67
2019-02-27T06:18:39.096Z,51.07
2019-02-27T06:21:08.498Z,53.50
2019-02-27T06:23:38.487Z,54.70
2019-02-27T06:26:08.145Z,55.07
2019-02-27T06:28:37.566Z,54.93
2019-02-27T06:31:07.005Z,60.40
2019-02-27T06:33:38.476Z,57.13
2019-02-27T06:36:09.459Z,57.00
2019-02-27T06:38:39.148Z,58.60
2019-02-27T06:41:10.329Z,62.17
2019-02-27T06:43:40.777Z,53.10
2019-02-27T06:46:11.985Z,55.67
2019-02-27T06:48:43.569Z,54.97
2019-02-27T06:51:13.637Z,54.47
2019-02-27T06:53:44.158Z,55.00
2019-02-27T06:56:13.917Z,56.63
2019-02-27T06:58:43.709Z,59.57
2019-02-27T07:01:14.909Z,56.27
2019-02-27T07:03:44.480Z,59.60
2019-02-27T07:06:14.019Z,58.73
2019-02-27T07:08:44.921Z,56.17
2019-02-27T07:11:16.512Z,60.50
2019-02-27T07:13:48.883Z,57.00
2019-02-27T07:16:20.497Z,56.67
2019-02-27T07:18:52.091Z,55.97
2019-02-27T07:21:22.627Z,57.57
2019-02-27T07:23:57.603Z,55.20
2019-02-27T07:26:24.704Z,58.08
2019-02-27T07:28:54.158Z,53.33
2019-02-27T07:31:23.537Z,57.33
2019-02-27T07:33:54.858Z,56.03
2019-02-27T07:36:25.533Z,59.07
2019-02-27T07:38:57.643Z,58.10
2019-02-27T07:41:28.228Z,57.93
2019-02-27T07:43:57.632Z,57.25
2019-02-27T07:46:28.444Z,58.68
2019-02-27T07:48:58.234Z,62.30
2019-02-27T07:51:29.990Z,56.60
2019-02-27T07:53:59.452Z,54.27
2019-02-27T07:56:30.482Z,67.03
2019-02-27T07:59:00.892Z,57.10
2019-02-27T08:01:43.254Z,55.48
2019-02-27T08:04:04.847Z,53.38
2019-02-27T08:06:35.094Z,55.03
2019-02-27T08:09:06.474Z,53.05
2019-02-27T08:11:37.983Z,54.33
2019-02-27T08:14:07.686Z,49.50
2019-02-27T08:16:38.196Z,57.70
2019-02-27T08:19:11.381Z,50.70
2019-02-27T08:21:39.964Z,51.67
2019-02-27T08:24:11.212Z,57.63
2019-02-27T08:26:42.599Z,55.07
2019-02-27T08:29:12.042Z,52.50
2019-02-27T08:31:41.473Z,50.63
2019-02-27T08:34:11.116Z,49.53
2019-02-27T08:36:40.554Z,75.03
2019-02-27T08:39:11.793Z,52.23
2019-02-27T08:41:41.277Z,52.73
2019-02-27T08:44:12.274Z,52.78
2019-02-27T08:46:43.677Z,51.43
2019-02-27T08:49:13.395Z,50.97
2019-02-27T08:51:44.508Z,46.63
2019-02-27T08:54:14.310Z,44.83
2019-02-27T08:56:47.323Z,46.80
2019-02-27T08:59:16.115Z,47.47
2019-02-27T09:01:45.523Z,51.37
2019-02-27T09:04:15.639Z,46.97
2019-02-27T09:06:46.883Z,57.47
2019-02-27T09:09:17.904Z,48.00
2019-02-27T09:11:47.582Z,48.23
2019-02-27T09:14:18.801Z,48.47
2019-02-27T09:16:50.018Z,41.70
2019-02-27T09:19:23.578Z,45.97
2019-02-27T09:21:52.952Z,42.63
2019-02-27T09:24:25.150Z,45.83
2019-02-27T09:26:54.626Z,46.13
2019-02-27T09:29:24.102Z,44.73
2019-02-27T09:31:53.577Z,47.10
2019-02-27T09:34:26.633Z,48.53
2019-02-27T09:36:54.708Z,41.02
2019-02-27T09:39:24.215Z,41.48
2019-02-27T09:41:53.781Z,41.77
2019-02-27T09:44:23.309Z,38.33
2019-02-27T09:46:53.136Z,34.17
2019-02-27T09:49:23.290Z,36.80
2019-02-27T09:51:55.852Z,33.70
2019-02-27T09:54:25.035Z,41.70
2019-02-27T09:57:02.076Z,38.28
2019-02-27T09:59:30.281Z,38.53
2019-02-27T10:02:00.920Z,44.20
2019-02-27T10:04:30.582Z,38.73
2019-02-27T10:07:00.067Z,31.70
2019-02-27T10:09:29.758Z,33.77
2019-02-27T10:12:02.475Z,33.48
2019-02-27T10:14:34.698Z,33.80
2019-02-27T10:17:06.767Z,36.73
2019-02-27T10:19:35.769Z,37.05
2019-02-27T10:22:05.627Z,40.93
2019-02-27T10:24:37.536Z,50.77
2019-02-27T10:27:09.155Z,77.82
2019-02-27T10:29:47.597Z,55.93
2019-02-27T10:32:15.744Z,39.20
2019-02-27T10:34:45.234Z,38.60
2019-02-27T10:37:18.158Z,37.20
2019-02-27T10:39:45.994Z,35.23
2019-02-27T10:42:16.632Z,32.10
2019-02-27T10:44:47.888Z,32.43
2019-02-27T10:47:17.406Z,36.63
2019-02-27T10:49:46.859Z,31.27
2019-02-27T10:52:16.403Z,34.37
2019-02-27T10:54:45.965Z,32.53
2019-02-27T10:57:17.881Z,30.90
2019-02-27T10:59:47.262Z,32.07
2019-02-27T11:02:16.757Z,32.47
2019-02-27T11:04:47.345Z,32.67
2019-02-27T11:07:18.029Z,34.43
2019-02-27T11:09:47.478Z,30.90
2019-02-27T11:12:17.672Z,31.63
2019-02-27T11:14:47.134Z,29.67
2019-02-27T11:17:18.251Z,29.33
2019-02-27T11:19:47.703Z,33.90
2019-02-27T11:22:17.141Z,32.40
2019-02-27T11:24:48.940Z,29.87
2019-02-27T11:27:17.956Z,28.87
2019-02-27T11:29:47.523Z,29.40
2019-02-27T11:32:22.999Z,29.23
2019-02-27T11:34:51.383Z,28.23
2019-02-27T11:37:22.580Z,33.10
2019-02-27T11:39:51.985Z,31.80
2019-02-27T11:42:22.853Z,29.63
2019-02-27T11:44:52.374Z,28.80
2019-02-27T11:47:22.982Z,29.83
2019-02-27T11:49:53.696Z,29.33
2019-02-27T11:52:28.651Z,29.85
2019-02-27T11:54:58.678Z,27.32
2019-02-27T11:57:30.508Z,29.20
2019-02-27T11:59:59.698Z,30.27
2019-02-27T12:02:33.860Z,32.88
2019-02-27T12:05:00.313Z,32.17
2019-02-27T12:07:31.167Z,33.77
2019-02-27T12:10:00.574Z,46.88
2019-02-27T12:12:30.189Z,31.73
2019-02-27T12:15:00.091Z,31.80
2019-02-27T12:17:30.580Z,30.62
2019-02-27T12:20:01.387Z,30.10
2019-02-27T12:22:32.931Z,30.63
2019-02-27T12:25:03.239Z,27.48
2019-02-27T12:27:48.571Z,24.53
2019-02-27T12:30:05.632Z,29.07
2019-02-27T12:32:36.391Z,27.60
2019-02-27T12:35:10.857Z,26.52
2019-02-27T12:37:39.411Z,23.07
2019-02-27T12:40:10.861Z,24.67
2019-02-27T12:42:42.587Z,24.27
2019-02-27T12:45:14.761Z,22.60
2019-02-27T12:47:45.900Z,19.83
2019-02-27T12:50:17.449Z,21.23
2019-02-27T12:52:48.130Z,22.27
2019-02-27T12:55:20.412Z,24.40
2019-02-27T12:57:53.129Z,21.20
2019-02-27T13:00:26.479Z,21.57
2019-02-27T13:02:58.819Z,22.00
2019-02-27T13:05:30.058Z,22.83
2019-02-27T13:07:59.417Z,22.10
2019-02-27T13:10:34.150Z,23.10
2019-02-27T13:13:02.226Z,23.70
2019-02-27T13:15:31.808Z,26.03
2019-02-27T13:18:01.819Z,22.87
2019-02-27T13:20:31.408Z,26.83
2019-02-27T13:23:03.871Z,24.23
2019-02-27T13:25:33.436Z,26.90
2019-02-27T13:28:04.685Z,26.68
2019-02-27T13:30:34.190Z,39.47
2019-02-27T13:33:03.610Z,29.17
2019-02-27T13:35:33.684Z,30.63
2019-02-27T13:38:04.723Z,28.27
2019-02-27T13:40:36.693Z,33.13
2019-02-27T13:43:08.188Z,35.03
2019-02-27T13:45:39.659Z,29.30
2019-02-27T13:48:09.083Z,22.33
2019-02-27T13:50:38.720Z,20.30
2019-02-27T13:53:08.181Z,22.20
2019-02-27T13:55:37.906Z,24.30
2019-02-27T13:58:07.473Z,19.20
2019-02-27T14:00:37.767Z,21.20
2019-02-27T14:03:12.040Z,21.30
2019-02-27T14:05:38.652Z,26.47
2019-02-27T14:08:09.196Z,21.17
2019-02-27T14:10:38.697Z,22.17
2019-02-27T14:13:09.774Z,19.47
2019-02-27T14:15:39.575Z,45.47
2019-02-27T14:18:08.990Z,46.00
2019-02-27T14:20:38.555Z,27.97
2019-02-27T14:23:08.578Z,22.05
2019-02-27T14:25:38.000Z,19.87
2019-02-27T14:28:08.734Z,16.80
2019-02-27T14:30:41.021Z,17.05
2019-02-27T14:33:11.124Z,18.07
2019-02-27T14:35:40.839Z,19.50
2019-02-27T14:38:10.306Z,18.37
2019-02-27T14:40:41.331Z,18.57
2019-02-27T14:43:11.088Z,17.13
2019-02-27T14:45:43.824Z,19.57
2019-02-27T14:48:14.601Z,16.63
2019-02-27T14:50:44.369Z,16.37
2019-02-27T14:53:16.550Z,18.23
2019-02-27T14:55:45.952Z,19.40
2019-02-27T14:58:24.008Z,17.93
2019-02-27T15:00:50.464Z,16.57
2019-02-27T15:03:20.498Z,18.00
2019-02-27T15:05:50.697Z,18.45
2019-02-27T15:08:20.612Z,19.87
2019-02-27T15:10:50.547Z,22.55
2019-02-27T15:13:20.872Z,21.87
2019-02-27T15:15:50.581Z,21.83
2019-02-27T15:18:23.076Z,18.60
2019-02-27T15:20:54.760Z,19.67
2019-02-27T15:23:28.191Z,18.27
2019-02-27T15:25:57.534Z,17.93
2019-02-27T15:28:32.926Z,18.87
2019-02-27T15:30:59.303Z,17.85
2019-02-27T15:33:28.704Z,19.60
2019-02-27T15:35:58.165Z,19.80
2019-02-27T15:38:27.554Z,19.83
2019-02-27T15:40:56.921Z,22.07
2019-02-27T15:43:27.384Z,20.50
2019-02-27T15:45:58.593Z,19.17
2019-02-27T15:48:28.281Z,20.50
2019-02-27T15:50:59.867Z,20.25
2019-02-27T15:53:30.340Z,21.05
2019-02-27T15:55:59.740Z,19.17
2019-02-27T15:58:29.554Z,24.87
2019-02-27T16:00:58.956Z,21.50
2019-02-27T16:03:30.058Z,19.30
2019-02-27T16:06:04.869Z,26.03
2019-02-27T16:08:31.750Z,21.45
2019-02-27T16:11:02.959Z,20.97
2019-02-27T16:13:34.684Z,19.92
2019-02-27T16:16:06.447Z,22.77
2019-02-27T16:18:36.910Z,21.27
2019-02-27T16:21:07.390Z,25.97
2019-02-27T16:23:37.422Z,22.10
2019-02-27T16:26:07.566Z,20.37
2019-02-27T16:28:39.065Z,18.10
2019-02-27T16:31:08.452Z,22.40
2019-02-27T16:33:37.942Z,21.82
2019-02-27T16:36:07.408Z,18.90
2019-02-27T16:38:36.790Z,23.30
2019-02-27T16:41:06.162Z,18.97
2019-02-27T16:43:35.809Z,22.07
2019-02-27T16:46:08.652Z,19.15
2019-02-27T16:48:36.502Z,23.47
2019-02-27T16:51:08.032Z,24.00
2019-02-27T16:53:37.433Z,21.17
2019-02-27T16:56:08.369Z,21.68
2019-02-27T16:58:38.208Z,34.13
2019-02-27T17:01:09.571Z,25.13
2019-02-27T17:03:40.763Z,23.43
2019-02-27T17:06:14.161Z,20.40
2019-02-27T17:08:44.045Z,21.90
2019-02-27T17:11:13.568Z,20.30
2019-02-27T17:13:44.154Z,23.70
2019-02-27T17:16:13.543Z,22.40
2019-02-27T17:18:42.950Z,21.67
2019-02-27T17:21:12.837Z,19.13
2019-02-27T17:23:45.382Z,22.23
2019-02-27T17:26:13.420Z,20.13
2019-02-27T17:28:43.062Z,22.17
2019-02-27T17:31:13.473Z,21.30
2019-02-27T17:33:43.150Z,21.93
2019-02-27T17:36:12.584Z,21.40
2019-02-27T17:38:45.266Z,21.73
2019-02-27T17:41:14.215Z,22.70
2019-02-27T17:43:43.891Z,21.63
2019-02-27T17:46:14.401Z,22.57
2019-02-27T17:48:45.972Z,24.33
2019-02-27T17:51:14.994Z,21.30
2019-02-27T17:53:45.697Z,19.60
2019-02-27T17:56:16.182Z,21.40
2019-02-27T17:58:45.879Z,22.07
2019-02-27T18:01:17.965Z,21.03
2019-02-27T18:03:49.040Z,23.03
2019-02-27T18:06:18.774Z,25.37
2019-02-27T18:08:51.551Z,22.77
2019-02-27T18:11:19.447Z,25.00
2019-02-27T18:13:49.126Z,22.90
2019-02-27T18:16:18.562Z,19.50
2019-02-27T18:18:47.916Z,19.37
2019-02-27T18:21:18.405Z,20.03
2019-02-27T18:23:48.074Z,18.63
2019-02-27T18:26:18.028Z,17.87
2019-02-27T18:28:47.588Z,20.10
2019-02-27T18:31:16.993Z,20.43
2019-02-27T18:33:49.430Z,21.50
2019-02-27T18:36:18.277Z,22.93
2019-02-27T18:38:49.361Z,21.73
2019-02-27T18:41:18.837Z,22.03
2019-02-27T18:43:49.336Z,19.67
2019-02-27T18:46:18.794Z,20.43
2019-02-27T18:48:48.197Z,22.60
2019-02-27T18:51:21.075Z,21.93
2019-02-27T18:53:51.019Z,22.93
2019-02-27T18:56:21.047Z,23.33
2019-02-27T18:58:55.472Z,20.63
2019-02-27T19:01:25.149Z,22.97
2019-02-27T19:04:00.264Z,22.23
2019-02-27T19:06:28.997Z,23.03
2019-02-27T19:08:59.526Z,23.83
2019-02-27T19:11:29.526Z,20.82
2019-02-27T19:13:59.054Z,25.30
2019-02-27T19:16:28.452Z,25.27
2019-02-27T19:18:57.858Z,23.07
2019-02-27T19:21:27.464Z,22.27
2019-02-27T19:23:56.903Z,22.23
2019-02-27T19:26:26.297Z,21.48
2019-02-27T19:28:59.340Z,22.87
2019-02-27T19:31:28.100Z,23.95
2019-02-27T19:33:57.503Z,21.70
2019-02-27T19:36:30.510Z,24.75
2019-02-27T19:38:58.740Z,25.95
2019-02-27T19:41:28.147Z,24.70
2019-02-27T19:43:57.828Z,24.87
2019-02-27T19:46:27.208Z,25.20
2019-02-27T19:48:56.750Z,23.73
2019-02-27T19:51:26.387Z,23.25
2019-02-27T19:53:55.791Z,25.00
2019-02-27T19:56:25.209Z,26.03
2019-02-27T19:58:56.374Z,24.47
2019-02-27T20:01:25.780Z,26.77
2019-02-27T20:03:55.188Z,25.40
2019-02-27T20:06:27.965Z,26.43
2019-02-27T20:08:57.922Z,26.20
2019-02-27T20:11:27.363Z,26.15
2019-02-27T20:14:02.160Z,26.30
2019-02-27T20:16:28.042Z,25.37
2019-02-27T20:18:58.541Z,30.07
2019-02-27T20:21:29.510Z,25.13
2019-02-27T20:24:01.485Z,23.83
2019-02-27T20:26:31.421Z,24.50
2019-02-27T20:29:04.211Z,24.77
2019-02-27T20:31:33.241Z,25.17
2019-02-27T20:34:02.633Z,26.05
2019-02-27T20:36:33.198Z,27.27
2019-02-27T20:39:06.153Z,26.87
2019-02-27T20:41:40.921Z,28.45
2019-02-27T20:44:09.035Z,25.90
2019-02-27T20:46:38.408Z,27.00
2019-02-27T20:49:10.391Z,25.25
2019-02-27T20:51:41.816Z,28.00
2019-02-27T20:54:12.416Z,26.70
2019-02-27T20:56:41.791Z,27.93
2019-02-27T20:59:11.233Z,26.80
2019-02-27T21:01:46.716Z,27.40
2019-02-27T21:04:13.575Z,24.33
2019-02-27T21:06:47.230Z,25.20
2019-02-27T21:09:14.196Z,28.03
2019-02-27T21:11:45.397Z,27.77
2019-02-27T21:14:14.899Z,27.13
2019-02-27T21:16:45.706Z,27.40
2019-02-27T21:19:15.307Z,26.77
2019-02-27T21:21:45.346Z,27.80
2019-02-27T21:24:15.070Z,29.73
2019-02-27T21:26:46.048Z,27.13
2019-02-27T21:29:15.927Z,27.00
2019-02-27T21:31:47.455Z,29.73
2019-02-27T21:34:19.336Z,31.00
2019-02-27T21:36:48.441Z,27.43
2019-02-27T21:39:17.849Z,25.23
2019-02-27T21:41:49.095Z,26.60
2019-02-27T21:44:25.407Z,27.00
2019-02-27T21:46:50.245Z,26.93
2019-02-27T21:49:19.760Z,25.17
2019-02-27T21:51:51.353Z,26.50
2019-02-27T21:54:21.267Z,27.13
2019-02-27T21:56:52.867Z,24.67
2019-02-27T21:59:22.499Z,29.43
2019-02-27T22:01:53.434Z,30.60
2019-02-27T22:04:25.275Z,26.52
2019-02-27T22:06:54.945Z,24.57
2019-02-27T22:09:25.444Z,27.00
2019-02-27T22:11:58.129Z,30.03
2019-02-27T22:14:28.255Z,26.33
2019-02-27T22:17:01.603Z,25.60
2019-02-27T22:19:29.870Z,26.87
2019-02-27T22:22:01.666Z,28.03
2019-02-27T22:24:30.994Z,28.32
2019-02-27T22:27:00.373Z,29.98
2019-02-27T22:29:29.918Z,30.80
2019-02-27T22:31:59.329Z,29.75
2019-02-27T22:34:28.940Z,29.42
2019-02-27T22:36:58.488Z,28.93
2019-02-27T22:39:27.859Z,25.67
2019-02-27T22:41:57.250Z,25.43
2019-02-27T22:44:29.768Z,25.43
2019-02-27T22:47:00.983Z,26.57
2019-02-27T22:49:32.119Z,25.53
2019-02-27T22:52:02.908Z,26.83
2019-02-27T22:54:33.202Z,25.30
2019-02-27T22:57:03.748Z,28.73
2019-02-27T22:59:34.006Z,28.07
2019-02-27T23:02:05.917Z,27.73
2019-02-27T23:04:35.327Z,28.80
2019-02-27T23:07:06.769Z,25.93
2019-02-27T23:09:36.973Z,28.02
2019-02-27T23:12:08.533Z,28.43
2019-02-27T23:14:39.602Z,27.00
2019-02-27T23:17:09.108Z,27.93
2019-02-27T23:19:38.806Z,30.95
2019-02-27T23:22:09.378Z,26.93
2019-02-27T23:24:43.702Z,27.13
2019-02-27T23:27:09.907Z,24.27
2019-02-27T23:29:39.888Z,28.15
2019-02-27T23:32:10.031Z,28.70
2019-02-27T23:34:41.850Z,26.80
2019-02-27T23:37:11.104Z,30.87
2019-02-27T23:39:42.939Z,27.67
2019-02-27T23:42:13.107Z,28.47
2019-02-27T23:44:42.991Z,29.50
2019-02-27T23:47:12.454Z,31.33
2019-02-27T23:49:42.127Z,30.90
2019-02-27T23:52:11.754Z,29.90
2019-02-27T23:54:42.124Z,30.80
2019-02-27T23:57:11.777Z,33.23
2019-02-27T23:59:42.718Z,38.77
